createdAt,value
2019-05-09T00:02:29.980Z,98879.00
2019-05-09T00:04:57.894Z,98892.00
2019-05-09T00:07:25.886Z,98881.00
2019-05-09T00:09:53.735Z,98882.00
2019-05-09T00:12:23.397Z,98884.00
2019-05-09T00:14:53.825Z,98891.00
2019-05-09T00:17:23.242Z,98882.00
2019-05-09T00:19:53.924Z,98878.00
2019-05-09T00:22:23.908Z,98876.00
2019-05-09T00:24:53.794Z,98885.00
2019-05-09T00:27:23.182Z,98875.00
2019-05-09T00:29:53.142Z,98874.00
2019-05-09T00:32:36.436Z,98880.00
2019-05-09T00:35:30.125Z,98881.00
2019-05-09T00:38:04.258Z,98875.00
2019-05-09T00:40:34.192Z,98881.00
2019-05-09T00:43:03.895Z,98883.00
2019-05-09T00:46:00.388Z,98858.00
2019-05-09T00:48:45.176Z,98870.00
2019-05-09T00:51:14.061Z,98880.00
2019-05-09T00:53:44.266Z,98878.00
2019-05-09T00:56:13.453Z,98861.00
2019-05-09T00:58:41.421Z,98863.00
2019-05-09T01:01:09.883Z,98864.00
2019-05-09T01:03:37.814Z,98872.00
2019-05-09T01:06:05.656Z,98868.00
2019-05-09T01:08:41.463Z,98865.00
2019-05-09T01:11:14.620Z,98859.00
2019-05-09T01:13:40.159Z,98857.00
2019-05-09T01:16:08.092Z,98866.00
2019-05-09T01:18:35.965Z,98851.00
2019-05-09T01:21:13.407Z,98861.00
2019-05-09T01:23:43.672Z,98855.00
2019-05-09T01:26:13.265Z,98860.00
2019-05-09T01:28:41.077Z,98862.00
2019-05-09T01:31:08.933Z,98858.00
2019-05-09T01:33:48.811Z,98859.00
2019-05-09T01:36:16.763Z,98855.00
2019-05-09T01:38:44.659Z,98853.00
2019-05-09T01:41:27.111Z,98853.00
2019-05-09T01:43:44.272Z,98848.00
2019-05-09T01:46:14.193Z,98853.00
2019-05-09T01:48:43.121Z,98850.00
2019-05-09T01:51:13.901Z,98849.00
2019-05-09T01:53:48.119Z,98851.00
2019-05-09T01:56:16.127Z,98854.00
2019-05-09T01:58:44.018Z,98849.00
2019-05-09T02:01:13.461Z,98853.00
2019-05-09T02:03:41.574Z,98853.00
2019-05-09T02:06:16.316Z,98846.00
2019-05-09T02:08:44.344Z,98845.00
2019-05-09T02:11:13.491Z,98856.00
2019-05-09T02:13:41.442Z,98861.00
2019-05-09T02:16:27.367Z,98857.00
2019-05-09T02:19:05.296Z,98861.00
2019-05-09T02:21:34.516Z,98856.00
2019-05-09T02:24:23.397Z,98851.00
2019-05-09T02:26:53.323Z,98860.00
2019-05-09T02:29:23.165Z,98858.00
2019-05-09T02:31:51.135Z,98863.00
2019-05-09T02:34:18.986Z,98861.00
2019-05-09T02:36:49.622Z,98865.00
2019-05-09T02:39:18.868Z,98854.00
2019-05-09T02:42:00.910Z,98859.00
2019-05-09T02:44:19.338Z,98867.00
2019-05-09T02:46:59.048Z,98876.00
2019-05-09T02:49:28.773Z,98872.00
2019-05-09T02:51:59.244Z,98873.00
2019-05-09T02:54:29.429Z,98864.00
2019-05-09T02:56:58.004Z,98830.00
2019-05-09T02:59:38.523Z,98881.00
2019-05-09T03:02:19.242Z,98872.00
2019-05-09T03:04:48.783Z,98877.00
2019-05-09T03:07:18.834Z,98878.00
2019-05-09T03:09:47.997Z,98871.00
2019-05-09T03:12:29.842Z,98870.00
2019-05-09T03:14:45.192Z,98875.00
2019-05-09T03:17:13.065Z,98845.00
2019-05-09T03:19:40.906Z,98878.00
2019-05-09T03:22:15.247Z,98885.00
2019-05-09T03:24:43.163Z,98879.00
2019-05-09T03:27:18.786Z,98879.00
2019-05-09T03:29:58.690Z,98888.00
2019-05-09T03:32:29.714Z,98886.00
2019-05-09T03:34:58.036Z,98881.00
2019-05-09T03:37:27.859Z,98890.00
2019-05-09T03:39:57.957Z,98881.00
2019-05-09T03:42:40.067Z,98881.00
2019-05-09T03:44:57.903Z,98879.00
2019-05-09T03:47:31.572Z,98884.00
2019-05-09T03:50:10.314Z,98882.00
2019-05-09T03:52:38.118Z,98880.00
2019-05-09T03:55:07.394Z,98876.00
2019-05-09T03:57:40.023Z,98866.00
2019-05-09T04:00:08.799Z,98877.00
2019-05-09T04:02:38.346Z,98875.00
2019-05-09T04:05:08.117Z,98867.00
2019-05-09T04:07:38.021Z,98870.00
2019-05-09T04:10:07.744Z,98868.00
2019-05-09T04:12:37.568Z,98871.00
2019-05-09T04:15:08.247Z,98867.00
2019-05-09T04:17:42.604Z,98866.00
2019-05-09T04:20:12.177Z,98869.00
2019-05-09T04:22:40.128Z,98859.00
2019-05-09T04:25:10.720Z,98868.00
2019-05-09T04:27:40.260Z,98866.00
2019-05-09T04:30:09.571Z,98867.00
2019-05-09T04:32:37.754Z,98866.00
2019-05-09T04:35:08.022Z,98844.00
2019-05-09T04:37:37.915Z,98876.00
2019-05-09T04:40:05.532Z,98866.00
2019-05-09T04:42:34.968Z,98870.00
2019-05-09T04:45:19.072Z,98867.00
2019-05-09T04:47:47.217Z,98867.00
2019-05-09T04:50:19.913Z,98866.00
2019-05-09T04:52:47.388Z,98859.00
2019-05-09T04:55:18.213Z,98866.00
2019-05-09T04:57:48.466Z,98866.00
2019-05-09T05:00:24.333Z,98870.00
2019-05-09T05:02:52.203Z,98876.00
2019-05-09T05:05:20.067Z,98884.00
2019-05-09T05:07:48.162Z,98892.00
2019-05-09T05:10:18.248Z,98886.00
2019-05-09T05:12:45.869Z,98884.00
2019-05-09T05:15:13.867Z,98885.00
2019-05-09T05:17:41.748Z,98882.00
2019-05-09T05:20:15.739Z,98883.00
2019-05-09T05:22:49.758Z,98884.00
2019-05-09T05:25:17.920Z,98888.00
2019-05-09T05:27:47.532Z,98884.00
2019-05-09T05:30:17.822Z,98880.00
2019-05-09T05:32:52.497Z,98881.00
2019-05-09T05:35:40.941Z,98886.00
2019-05-09T05:38:08.885Z,98890.00
2019-05-09T05:40:44.783Z,98880.00
2019-05-09T05:43:08.797Z,98891.00
2019-05-09T05:45:45.167Z,98887.00
2019-05-09T05:48:20.473Z,98890.00
2019-05-09T05:50:48.832Z,98881.00
2019-05-09T05:53:18.263Z,98886.00
2019-05-09T05:55:50.438Z,98880.00
2019-05-09T05:58:18.021Z,98879.00
2019-05-09T06:00:48.058Z,98876.00
2019-05-09T06:03:17.817Z,98887.00
2019-05-09T06:05:51.361Z,98879.00
2019-05-09T06:08:17.485Z,98875.00
2019-05-09T06:10:48.173Z,98874.00
2019-05-09T06:13:15.443Z,98876.00
2019-05-09T06:15:43.411Z,98875.00
2019-05-09T06:18:11.336Z,98870.00
2019-05-09T06:20:39.236Z,98875.00
2019-05-09T06:23:08.623Z,98876.00
2019-05-09T06:25:38.932Z,98878.00
2019-05-09T06:28:07.657Z,98879.00
2019-05-09T06:30:40.916Z,98870.00
2019-05-09T06:33:05.705Z,98871.00
2019-05-09T06:35:33.666Z,98873.00
2019-05-09T06:38:01.658Z,98874.00
2019-05-09T06:40:29.669Z,98870.00
2019-05-09T06:42:59.846Z,98868.00
2019-05-09T06:45:41.655Z,98877.00
2019-05-09T06:48:10.262Z,98885.00
2019-05-09T06:50:38.233Z,98876.00
2019-05-09T06:53:08.041Z,98884.00
2019-05-09T06:55:38.362Z,98886.00
2019-05-09T06:58:31.612Z,98891.00
2019-05-09T07:01:07.934Z,98900.00
2019-05-09T07:03:37.513Z,98889.00
2019-05-09T07:06:10.314Z,98884.00
2019-05-09T07:08:47.720Z,98886.00
2019-05-09T07:11:15.576Z,98880.00
2019-05-09T07:13:47.152Z,98891.00
2019-05-09T07:16:14.762Z,98889.00
2019-05-09T07:18:42.833Z,98894.00
2019-05-09T07:21:10.731Z,98899.00
2019-05-09T07:23:39.742Z,98896.00
2019-05-09T07:26:20.017Z,98898.00
2019-05-09T07:28:48.712Z,98886.00
2019-05-09T07:31:30.967Z,98893.00
2019-05-09T07:34:02.622Z,98889.00
2019-05-09T07:36:31.654Z,98883.00
2019-05-09T07:38:59.652Z,98890.00
2019-05-09T07:41:28.271Z,98883.00
2019-05-09T07:43:58.350Z,98883.00
2019-05-09T07:46:28.885Z,98838.00
2019-05-09T07:48:58.111Z,98879.00
2019-05-09T07:51:27.477Z,98883.00
2019-05-09T07:53:55.640Z,98883.00
2019-05-09T07:56:23.611Z,98881.00
2019-05-09T07:58:51.467Z,98889.00
2019-05-09T08:01:19.450Z,98876.00
2019-05-09T08:03:48.965Z,98880.00
2019-05-09T08:06:18.331Z,98872.00
2019-05-09T08:08:47.691Z,98857.00
2019-05-09T08:11:18.070Z,98867.00
2019-05-09T08:13:48.396Z,98860.00
2019-05-09T08:16:15.550Z,98860.00
2019-05-09T08:18:43.461Z,98858.00
2019-05-09T08:21:11.396Z,98850.00
2019-05-09T08:23:39.336Z,98843.00
2019-05-09T08:26:08.692Z,98846.00
2019-05-09T08:28:39.042Z,98828.00
2019-05-09T08:31:08.229Z,98836.00
2019-05-09T08:33:38.083Z,98831.00
2019-05-09T08:36:08.770Z,98841.00
2019-05-09T08:38:39.035Z,98842.00
2019-05-09T08:41:09.195Z,98849.00
2019-05-09T08:43:39.741Z,98855.00
2019-05-09T08:46:08.490Z,98866.00
2019-05-09T08:48:37.831Z,98853.00
2019-05-09T08:51:20.574Z,98867.00
2019-05-09T08:53:48.559Z,98854.00
2019-05-09T08:56:17.762Z,98859.00
2019-05-09T08:58:48.386Z,98858.00
2019-05-09T09:01:27.346Z,98853.00
2019-05-09T09:03:48.273Z,98856.00
2019-05-09T09:06:18.200Z,98851.00
2019-05-09T09:08:48.108Z,98849.00
2019-05-09T09:11:15.551Z,98852.00
2019-05-09T09:13:43.493Z,98850.00
2019-05-09T09:16:18.360Z,98850.00
2019-05-09T09:18:41.294Z,98848.00
2019-05-09T09:21:09.229Z,98851.00
2019-05-09T09:23:43.901Z,98844.00
2019-05-09T09:26:08.017Z,98834.00
2019-05-09T09:28:37.986Z,98854.00
2019-05-09T09:31:08.157Z,98846.00
2019-05-09T09:33:37.643Z,98848.00
2019-05-09T09:36:05.742Z,98853.00
2019-05-09T09:38:33.696Z,98838.00
2019-05-09T09:41:03.391Z,98832.00
2019-05-09T09:43:31.495Z,98826.00
2019-05-09T09:46:10.894Z,98819.00
2019-05-09T09:48:29.563Z,98821.00
2019-05-09T09:50:58.060Z,98823.00
2019-05-09T09:53:27.846Z,98826.00
2019-05-09T09:55:58.291Z,98821.00
2019-05-09T09:58:27.374Z,98821.00
2019-05-09T10:01:09.716Z,98822.00
2019-05-09T10:03:37.715Z,98821.00
2019-05-09T10:06:05.576Z,98819.00
2019-05-09T10:08:33.636Z,98826.00
2019-05-09T10:11:01.573Z,98818.00
2019-05-09T10:13:29.487Z,98821.00
2019-05-09T10:16:28.718Z,98811.00
2019-05-09T10:18:58.504Z,98805.00
2019-05-09T10:21:29.781Z,98801.00
2019-05-09T10:23:59.847Z,98805.00
2019-05-09T10:26:28.510Z,98801.00
2019-05-09T10:28:56.605Z,98808.00
2019-05-09T10:31:24.550Z,98808.00
2019-05-09T10:33:52.558Z,98799.00
2019-05-09T10:36:20.499Z,98801.00
2019-05-09T10:38:48.415Z,98804.00
2019-05-09T10:41:17.470Z,98805.00
2019-05-09T10:43:52.785Z,98805.00
2019-05-09T10:47:01.881Z,98802.00
2019-05-09T10:49:28.171Z,98807.00
2019-05-09T10:51:58.060Z,98796.00
2019-05-09T10:54:27.861Z,98793.00
2019-05-09T10:56:57.991Z,98799.00
2019-05-09T10:59:26.200Z,98795.00
2019-05-09T11:01:54.210Z,98791.00
2019-05-09T11:04:22.155Z,98796.00
2019-05-09T11:06:50.063Z,98784.00
2019-05-09T11:09:18.470Z,98786.00
2019-05-09T11:11:48.359Z,98783.00
2019-05-09T11:14:32.693Z,98788.00
2019-05-09T11:16:51.089Z,98777.00
2019-05-09T11:19:18.331Z,98778.00
2019-05-09T11:21:47.865Z,98776.00
2019-05-09T11:24:18.540Z,98766.00
2019-05-09T11:26:47.985Z,98773.00
2019-05-09T11:29:15.679Z,98765.00
2019-05-09T11:31:43.639Z,98771.00
2019-05-09T11:34:11.676Z,98773.00
2019-05-09T11:36:39.648Z,98766.00
2019-05-09T11:39:10.718Z,98762.00
2019-05-09T11:41:38.467Z,98767.00
2019-05-09T11:44:08.498Z,98768.00
2019-05-09T11:46:38.237Z,98762.00
2019-05-09T11:49:08.324Z,98768.00
2019-05-09T11:51:36.218Z,98764.00
2019-05-09T11:54:04.155Z,98758.00
2019-05-09T11:56:44.967Z,98757.00
2019-05-09T11:59:12.973Z,98758.00
2019-05-09T12:01:40.959Z,98753.00
2019-05-09T12:04:09.234Z,98753.00
2019-05-09T12:06:38.370Z,98751.00
2019-05-09T12:09:08.604Z,98752.00
2019-05-09T12:11:41.369Z,98752.00
2019-05-09T12:14:08.864Z,98748.00
2019-05-09T12:16:38.117Z,98746.00
2019-05-09T12:19:06.273Z,98746.00
2019-05-09T12:21:38.529Z,98743.00
2019-05-09T12:24:04.125Z,98734.00
2019-05-09T12:26:32.072Z,98735.00
2019-05-09T12:29:00.066Z,98732.00
2019-05-09T12:31:29.009Z,98729.00
2019-05-09T12:33:59.106Z,98732.00
2019-05-09T12:36:28.641Z,98725.00
2019-05-09T12:38:59.140Z,98724.00
2019-05-09T12:41:30.992Z,98720.00
2019-05-09T12:43:57.468Z,98717.00
2019-05-09T12:46:28.159Z,98722.00
2019-05-09T12:48:55.481Z,98717.00
2019-05-09T12:51:23.537Z,98711.00
2019-05-09T12:53:51.529Z,98715.00
2019-05-09T12:56:19.554Z,98709.00
2019-05-09T12:58:47.834Z,98707.00
2019-05-09T13:01:18.001Z,98705.00
2019-05-09T13:03:48.248Z,98705.00
2019-05-09T13:06:19.482Z,98707.00
2019-05-09T13:08:47.873Z,98701.00
2019-05-09T13:11:15.497Z,98705.00
2019-05-09T13:13:43.454Z,98703.00
2019-05-09T13:16:44.042Z,98704.00
2019-05-09T13:19:07.116Z,98708.00
2019-05-09T13:21:38.355Z,98697.00
2019-05-09T13:24:05.069Z,98702.00
2019-05-09T13:26:33.177Z,98699.00
2019-05-09T13:29:01.205Z,98690.00
2019-05-09T13:31:29.732Z,98690.00
2019-05-09T13:33:58.362Z,98697.00
2019-05-09T13:36:28.387Z,98699.00
2019-05-09T13:39:04.172Z,98693.00
2019-05-09T13:41:26.438Z,98688.00
2019-05-09T13:43:59.182Z,98687.00
2019-05-09T13:46:24.333Z,98687.00
2019-05-09T13:49:09.859Z,98682.00
2019-05-09T13:51:22.132Z,98686.00
2019-05-09T13:53:50.088Z,98687.00
2019-05-09T13:56:18.118Z,98694.00
2019-05-09T13:58:48.582Z,98693.00
2019-05-09T14:01:17.612Z,98687.00
2019-05-09T14:03:45.723Z,98685.00
2019-05-09T14:06:13.764Z,98683.00
2019-05-09T14:08:41.778Z,98678.00
2019-05-09T14:11:09.727Z,98680.00
2019-05-09T14:13:38.435Z,98679.00
2019-05-09T14:16:18.848Z,98679.00
2019-05-09T14:18:38.316Z,98680.00
2019-05-09T14:21:07.708Z,98696.00
2019-05-09T14:23:39.592Z,98690.00
2019-05-09T14:26:09.152Z,98687.00
2019-05-09T14:28:35.926Z,98688.00
2019-05-09T14:31:03.984Z,98697.00
2019-05-09T14:33:32.101Z,98699.00
2019-05-09T14:36:00.058Z,98698.00
2019-05-09T14:38:28.218Z,98695.00
2019-05-09T14:40:56.594Z,98696.00
2019-05-09T14:43:24.562Z,98700.00
2019-05-09T14:45:52.575Z,98702.00
2019-05-09T14:48:20.642Z,98706.00
2019-05-09T14:50:49.626Z,98709.00
2019-05-09T14:53:18.254Z,98714.00
2019-05-09T14:55:47.576Z,98711.00
2019-05-09T14:58:17.890Z,98719.00
2019-05-09T15:00:48.016Z,98713.00
2019-05-09T15:03:15.409Z,98727.00
2019-05-09T15:05:43.364Z,98721.00
2019-05-09T15:08:11.303Z,98724.00
2019-05-09T15:10:39.285Z,98719.00
2019-05-09T15:13:07.939Z,98736.00
2019-05-09T15:15:38.190Z,98738.00
2019-05-09T15:18:08.124Z,98740.00
2019-05-09T15:20:38.047Z,98748.00
2019-05-09T15:23:08.461Z,98748.00
2019-05-09T15:25:36.386Z,98756.00
2019-05-09T15:28:07.994Z,98763.00
2019-05-09T15:30:38.361Z,98761.00
2019-05-09T15:33:05.331Z,98768.00
2019-05-09T15:35:33.338Z,98759.00
2019-05-09T15:38:01.508Z,98763.00
2019-05-09T15:40:29.588Z,98764.00
2019-05-09T15:42:58.752Z,98766.00
2019-05-09T15:45:29.016Z,98772.00
2019-05-09T15:47:58.285Z,98783.00
2019-05-09T15:50:27.871Z,98788.00
2019-05-09T15:52:57.956Z,98805.00
2019-05-09T15:55:28.804Z,98808.00
2019-05-09T15:57:57.787Z,98812.00
2019-05-09T16:00:28.392Z,98813.00
2019-05-09T16:02:58.955Z,98830.00
2019-05-09T16:05:26.869Z,98834.00
2019-05-09T16:07:54.962Z,98836.00
2019-05-09T16:10:23.067Z,98845.00
2019-05-09T16:12:51.188Z,98846.00
2019-05-09T16:15:19.352Z,98848.00
2019-05-09T16:17:48.780Z,98844.00
2019-05-09T16:20:19.643Z,98853.00
2019-05-09T16:22:48.294Z,98842.00
2019-05-09T16:25:18.381Z,98864.00
2019-05-09T16:27:48.458Z,98871.00
2019-05-09T16:30:17.098Z,98882.00
2019-05-09T16:32:45.210Z,98880.00
2019-05-09T16:35:13.220Z,98886.00
2019-05-09T16:38:00.884Z,98899.00
2019-05-09T16:40:11.296Z,98902.00
2019-05-09T16:42:39.399Z,98895.00
2019-05-09T16:45:08.197Z,98898.00
2019-05-09T16:47:36.344Z,98904.00
2019-05-09T16:50:04.810Z,98905.00
2019-05-09T16:52:32.807Z,98925.00
2019-05-09T16:55:08.049Z,98917.00
2019-05-09T16:57:37.627Z,98915.00
2019-05-09T17:00:08.074Z,98923.00
2019-05-09T17:02:38.103Z,98924.00
2019-05-09T17:05:08.394Z,98928.00
2019-05-09T17:07:38.390Z,98938.00
2019-05-09T17:10:08.299Z,98936.00
2019-05-09T17:12:36.681Z,98937.00
2019-05-09T17:15:08.350Z,98936.00
2019-05-09T17:17:38.228Z,98941.00
2019-05-09T17:20:19.477Z,98946.00
2019-05-09T17:23:13.532Z,98943.00
2019-05-09T17:25:38.443Z,98939.00
2019-05-09T17:28:06.969Z,98947.00
2019-05-09T17:30:35.263Z,98946.00
2019-05-09T17:33:04.255Z,98948.00
2019-05-09T17:35:32.500Z,98952.00
2019-05-09T17:38:00.522Z,98962.00
2019-05-09T17:40:28.663Z,98966.00
2019-05-09T17:42:58.990Z,98976.00
2019-05-09T17:45:26.842Z,98985.00
2019-05-09T17:47:54.857Z,98979.00
2019-05-09T17:50:22.890Z,98974.00
2019-05-09T17:52:50.867Z,98985.00
2019-05-09T17:55:18.966Z,98991.00
2019-05-09T17:57:47.915Z,98987.00
2019-05-09T18:00:21.618Z,98988.00
2019-05-09T18:02:48.633Z,98993.00
2019-05-09T18:05:17.000Z,99004.00
2019-05-09T18:07:45.284Z,99002.00
2019-05-09T18:10:14.047Z,99010.00
2019-05-09T18:12:42.290Z,99008.00
2019-05-09T18:15:10.671Z,99023.00
2019-05-09T18:17:38.667Z,99029.00
2019-05-09T18:20:08.313Z,99030.00
2019-05-09T18:22:36.275Z,99027.00
2019-05-09T18:25:08.237Z,99037.00
2019-05-09T18:27:37.856Z,99038.00
2019-05-09T18:30:06.690Z,99040.00
2019-05-09T18:32:43.264Z,99041.00
2019-05-09T18:35:22.479Z,99056.00
2019-05-09T18:37:51.020Z,99057.00
2019-05-09T18:40:31.758Z,99055.00
2019-05-09T18:42:59.870Z,99073.00
2019-05-09T18:45:28.586Z,99063.00
2019-05-09T18:47:58.076Z,99062.00
2019-05-09T18:50:26.419Z,99065.00
2019-05-09T18:52:54.660Z,99078.00
2019-05-09T18:55:23.064Z,99074.00
2019-05-09T18:57:51.129Z,99088.00
2019-05-09T19:00:20.471Z,99080.00
2019-05-09T19:02:49.142Z,99093.00
2019-05-09T19:05:18.273Z,99088.00
2019-05-09T19:07:46.581Z,99091.00
2019-05-09T19:10:14.950Z,99084.00
2019-05-09T19:12:43.199Z,99096.00
2019-05-09T19:15:21.519Z,99091.00
2019-05-09T19:18:08.657Z,99103.00
2019-05-09T19:21:02.346Z,99108.00
2019-05-09T19:23:30.442Z,99115.00
2019-05-09T19:26:01.327Z,99122.00
2019-05-09T19:28:33.903Z,99119.00
2019-05-09T19:31:01.883Z,99131.00
2019-05-09T19:33:30.283Z,99136.00
2019-05-09T19:35:58.334Z,99128.00
2019-05-09T19:38:26.624Z,99137.00
2019-05-09T19:40:54.781Z,99133.00
2019-05-09T19:43:22.782Z,99136.00
2019-05-09T19:45:51.187Z,99147.00
2019-05-09T19:48:19.492Z,99146.00
2019-05-09T19:50:47.706Z,99145.00
2019-05-09T19:53:15.822Z,99151.00
2019-05-09T19:55:43.951Z,99147.00
2019-05-09T19:58:12.279Z,99153.00
2019-05-09T20:00:40.518Z,99163.00
2019-05-09T20:03:08.644Z,99146.00
2019-05-09T20:05:37.831Z,99152.00
2019-05-09T20:08:06.158Z,99148.00
2019-05-09T20:10:52.133Z,99160.00
2019-05-09T20:13:37.926Z,99158.00
2019-05-09T20:16:06.144Z,99169.00
2019-05-09T20:18:34.267Z,99171.00
2019-05-09T20:21:02.384Z,99178.00
2019-05-09T20:23:30.703Z,99175.00
2019-05-09T20:26:00.061Z,99191.00
2019-05-09T20:28:28.230Z,99191.00
2019-05-09T20:30:56.539Z,99194.00
2019-05-09T20:33:24.637Z,99210.00
2019-05-09T20:35:52.697Z,99214.00
2019-05-09T20:38:20.791Z,99222.00
2019-05-09T20:40:48.970Z,99221.00
2019-05-09T20:43:17.027Z,99220.00
2019-05-09T20:45:45.417Z,99231.00
2019-05-09T20:48:13.686Z,99237.00
2019-05-09T20:50:44.434Z,99243.00
2019-05-09T20:53:11.824Z,99243.00
2019-05-09T20:55:39.852Z,99251.00
2019-05-09T20:58:08.134Z,99256.00
2019-05-09T21:00:36.307Z,99257.00
2019-05-09T21:03:07.873Z,99267.00
2019-05-09T21:05:34.462Z,99265.00
2019-05-09T21:08:02.695Z,99266.00
2019-05-09T21:10:30.757Z,99274.00
2019-05-09T21:12:58.953Z,99279.00
2019-05-09T21:15:27.042Z,99276.00
2019-05-09T21:17:55.265Z,99280.00
2019-05-09T21:20:23.723Z,99277.00
2019-05-09T21:22:52.542Z,99285.00
2019-05-09T21:25:20.787Z,99282.00
2019-05-09T21:27:48.869Z,99287.00
2019-05-09T21:30:17.188Z,99293.00
2019-05-09T21:32:45.428Z,99300.00
2019-05-09T21:35:13.634Z,99294.00
2019-05-09T21:37:41.729Z,99305.00
2019-05-09T21:40:10.223Z,99308.00
2019-05-09T21:42:38.376Z,99310.00
2019-05-09T21:45:10.028Z,99313.00
2019-05-09T21:47:38.059Z,99318.00
2019-05-09T21:50:06.869Z,99333.00
2019-05-09T21:52:35.129Z,99335.00
2019-05-09T21:55:03.271Z,99344.00
2019-05-09T21:57:31.353Z,99345.00
2019-05-09T21:59:59.344Z,99340.00
2019-05-09T22:02:27.512Z,99352.00
2019-05-09T22:04:55.553Z,99348.00
2019-05-09T22:07:23.556Z,99351.00
2019-05-09T22:09:51.705Z,99356.00
2019-05-09T22:12:19.651Z,99355.00
2019-05-09T22:14:47.770Z,99351.00
2019-05-09T22:17:35.426Z,99354.00
2019-05-09T22:20:04.248Z,99363.00
2019-05-09T22:22:32.696Z,99357.00
2019-05-09T22:25:00.692Z,99362.00
2019-05-09T22:27:28.886Z,99364.00
2019-05-09T22:29:59.828Z,99360.00
2019-05-09T22:32:27.912Z,99359.00
2019-05-09T22:34:55.904Z,99359.00
2019-05-09T22:37:24.160Z,99374.00
2019-05-09T22:39:52.329Z,99379.00
2019-05-09T22:42:20.634Z,99375.00
2019-05-09T22:44:48.575Z,99377.00
2019-05-09T22:47:16.651Z,99372.00
2019-05-09T22:49:44.598Z,99373.00
2019-05-09T22:52:12.705Z,99375.00
2019-05-09T22:54:40.668Z,99379.00
2019-05-09T22:57:08.836Z,99388.00
2019-05-09T22:59:36.824Z,99380.00
2019-05-09T23:02:06.939Z,99384.00
2019-05-09T23:04:35.698Z,99390.00
2019-05-09T23:07:03.658Z,99399.00
2019-05-09T23:09:34.732Z,99387.00
2019-05-09T23:12:02.647Z,99403.00
2019-05-09T23:14:30.656Z,99404.00
2019-05-09T23:16:59.088Z,99401.00
2019-05-09T23:19:27.768Z,99402.00
2019-05-09T23:21:55.774Z,99410.00
2019-05-09T23:24:28.541Z,99404.00
2019-05-09T23:26:55.567Z,99405.00
2019-05-09T23:29:23.603Z,99407.00
2019-05-09T23:32:11.195Z,99392.00
2019-05-09T23:34:39.712Z,99393.00
2019-05-09T23:37:07.659Z,99397.00
2019-05-09T23:39:45.984Z,99396.00
2019-05-09T23:42:13.982Z,99408.00
2019-05-09T23:44:41.908Z,99412.00
2019-05-09T23:47:09.797Z,99416.00
2019-05-09T23:49:37.876Z,99412.00
2019-05-09T23:52:05.749Z,99423.00
2019-05-09T23:54:52.112Z,99422.00
2019-05-09T23:57:38.633Z,99433.00
